X  Lukk Metar værinformasjon om luftfart        LEGR Granada
Temperatur
13°C Temperatur
8°C Duggpunkt
72% Luftfuktighet



Vind
0 KM/T
0 MPT
0 M/S
0 KNP



Stille
N
Nåværende forhold

Mostly Clear Mostly Klart
Trykk 1024 (hPa) - 30.23 (inHg)
Sikt 7 (mil) - 11 (km)
Flyplass
Flyplass-kode LEGR

Plassering: Granada
Avstand: 56 (km)

Metar:
METAR LEGR 290200Z AUTO 00000KT CAVOK 13/08 Q1024

Tid: 29-09-2021 04:00 CEST